PWSweather.com
Personal Weather Stations
Station Observations
SUBOTICARS
SuboticaYU

SuboticaYU

Lat: 46.1296717, Lon: 19.641551

Elevation: 361

Station Type: Nexus

http://sumeteo.info

Latest ConditionsUpdated 11:55:00 AM GMT+01:01 Sunday, Jan 21, 2018
Currently Today's Max Today's Min Today's Average
Temperature 34.0°F1.1°C 34.3°F1.3°C 32.2°F0.1°C 33.0°F0.6°C
Dew Point 20.3°F-6.5°C 28.5°F-1.9°C 19.5°F-6.9°C 24.7°F-4.1°C
Winds 3.5 mph SW5.6 kmh SW 9.2 mph SSE14.8 kmh SSE - 5.3 mph 8.5 kmh
Wind Gusts 3.5 mph5.6 kmh 15.0 mph24.1 kmh - -
Humidity 57% 80% 55% 72%
Pressure 29.73 in1006.8 mb 29.84 in1010.5 mb 29.68 in1005.1 mb -
Precipitation - 0.10 in2.5 mm - -
Hour Temp Dew Point Humidity Winds Wind Gusts Pressure Precip Precip Rate Daily Precip Total
11:55 AM 34.0°F1.1°C 20.3°F-6.5°C 57% 3.5 mph SW5.6 kmh SW 3.5 mph5.6 kmh 29.73 in1006.8 mb - 0.00 in0.0 mm 0.10 in2.5 mm
11:50 AM 34.0°F1.1°C 20.3°F-6.5°C 57% 3.5 mph SW5.6 kmh SW 3.5 mph5.6 kmh 29.73 in1006.8 mb - 0.00 in0.0 mm 0.10 in2.5 mm
11:45 AM 34.2°F1.2°C 20.1°F-6.6°C 56% 3.5 mph WSW5.6 kmh WSW 3.5 mph5.6 kmh 29.73 in1006.8 mb - 0.00 in0.0 mm 0.10 in2.5 mm
11:40 AM 34.1°F1.2°C 20.1°F-6.6°C 56% 4.6 mph WSW7.4 kmh WSW 5.8 mph9.3 kmh 29.73 in1006.8 mb - 0.00 in0.0 mm 0.10 in2.5 mm
11:35 AM 34.0°F1.1°C 19.5°F-6.9°C 55% 3.5 mph SW5.6 kmh SW 5.8 mph9.3 kmh 29.73 in1006.8 mb - 0.00 in0.0 mm 0.10 in2.5 mm
11:30 AM 33.6°F0.9°C 20.0°F-6.7°C 57% 2.3 mph SW3.7 kmh SW 6.9 mph11.1 kmh 29.73 in1006.8 mb - 0.00 in0.0 mm 0.10 in2.5 mm
11:25 AM 33.6°F0.9°C 20.4°F-6.4°C 58% 1.2 mph SE1.9 kmh SE 1.2 mph1.9 kmh 29.75 in1007.5 mb - 0.00 in0.0 mm 0.10 in2.5 mm
11:20 AM 33.3°F0.7°C 20.5°F-6.4°C 59% 1.2 mph S1.9 kmh S 2.3 mph3.7 kmh 29.75 in1007.5 mb - 0.00 in0.0 mm 0.10 in2.5 mm
11:15 AM 33.3°F0.7°C 20.5°F-6.4°C 59% 1.2 mph SW1.9 kmh SW 1.2 mph1.9 kmh 29.75 in1007.5 mb - 0.00 in0.0 mm 0.10 in2.5 mm
11:10 AM 33.3°F0.7°C 20.9°F-6.2°C 60% 1.2 mph S1.9 kmh S 2.3 mph3.7 kmh 29.75 in1007.5 mb - 0.01 in0.3 mm 0.10 in2.5 mm
11:00 AM 32.9°F0.5°C 20.9°F-6.2°C 61% 1.2 mph SE1.9 kmh SE 2.3 mph3.7 kmh 29.73 in1006.8 mb - 0.00 in0.0 mm 0.09 in2.3 mm
10:55 AM 32.9°F0.5°C 21.3°F-5.9°C 62% 2.3 mph SE3.7 kmh SE 1.2 mph1.9 kmh 29.73 in1006.8 mb - 0.01 in0.3 mm 0.09 in2.3 mm
10:50 AM 32.9°F0.5°C 21.3°F-5.9°C 62% 2.3 mph SSE3.7 kmh SSE 3.5 mph5.6 kmh 29.73 in1006.8 mb - 0.00 in0.0 mm 0.09 in2.3 mm
10:45 AM 32.9°F0.5°C 21.3°F-5.9°C 62% 2.3 mph SSW3.7 kmh SSW 3.5 mph5.6 kmh 29.75 in1007.5 mb - 0.01 in0.3 mm 0.09 in2.3 mm
10:40 AM 32.9°F0.5°C 21.3°F-5.9°C 62% 2.3 mph SE3.7 kmh SE 4.6 mph7.4 kmh 29.75 in1007.5 mb - 0.00 in0.0 mm 0.08 in2.0 mm
10:35 AM 32.9°F0.5°C 21.3°F-5.9°C 62% 2.3 mph SW3.7 kmh SW 2.3 mph3.7 kmh 29.75 in1007.5 mb - 0.01 in0.3 mm 0.08 in2.0 mm
10:30 AM 32.9°F0.5°C 21.3°F-5.9°C 62% 3.5 mph SE5.6 kmh SE 3.5 mph5.6 kmh 29.75 in1007.5 mb - 0.00 in0.0 mm 0.07 in1.8 mm
10:25 AM 32.9°F0.5°C 20.9°F-6.2°C 61% 3.5 mph S5.6 kmh S 1.2 mph1.9 kmh 29.74 in1007.1 mb - 0.00 in0.0 mm 0.07 in1.8 mm
10:20 AM 32.9°F0.5°C 20.9°F-6.2°C 61% 3.5 mph SSE5.6 kmh SSE 4.6 mph7.4 kmh 29.74 in1007.1 mb - 0.00 in0.0 mm 0.07 in1.8 mm
10:15 AM 32.9°F0.5°C 20.9°F-6.2°C 61% 3.5 mph S5.6 kmh S 5.8 mph9.3 kmh 29.74 in1007.1 mb - 0.00 in0.0 mm 0.07 in1.8 mm
10:10 AM 32.9°F0.5°C 20.9°F-6.2°C 61% 4.6 mph SE7.4 kmh SE 4.6 mph7.4 kmh 29.74 in1007.1 mb - 0.01 in0.3 mm 0.07 in1.8 mm
10:00 AM 32.9°F0.5°C 20.9°F-6.2°C 61% 4.6 mph SE7.4 kmh SE 8.1 mph13.0 kmh 29.73 in1006.8 mb - 0.00 in0.0 mm 0.07 in1.8 mm
09:55 AM 32.9°F0.5°C 20.9°F-6.2°C 61% 4.6 mph SSE7.4 kmh SSE 4.6 mph7.4 kmh 29.73 in1006.8 mb - 0.00 in0.0 mm 0.07 in1.8 mm
09:50 AM 32.7°F0.4°C 20.7°F-6.3°C 61% 4.6 mph SE7.4 kmh SE 5.8 mph9.3 kmh 29.73 in1006.8 mb - 0.00 in0.0 mm 0.07 in1.8 mm
09:45 AM 32.7°F0.4°C 20.7°F-6.3°C 61% 3.5 mph SE5.6 kmh SE 4.6 mph7.4 kmh 29.73 in1006.8 mb - 0.00 in0.0 mm 0.07 in1.8 mm
09:40 AM 32.7°F0.4°C 21.1°F-6.1°C 62% 3.5 mph SE5.6 kmh SE 5.8 mph9.3 kmh 29.73 in1006.8 mb - 0.00 in0.0 mm 0.07 in1.8 mm
09:35 AM 32.5°F0.3°C 21.0°F-6.1°C 62% 4.6 mph ESE7.4 kmh ESE 2.3 mph3.7 kmh 29.73 in1006.8 mb - 0.00 in0.0 mm 0.07 in1.8 mm
09:30 AM 32.5°F0.3°C 21.0°F-6.1°C 62% 5.8 mph SE9.3 kmh SE 4.6 mph7.4 kmh 29.73 in1006.8 mb - 0.00 in0.0 mm 0.07 in1.8 mm
09:25 AM 32.5°F0.3°C 21.3°F-5.9°C 63% 4.6 mph SE7.4 kmh SE 8.1 mph13.0 kmh 29.74 in1007.1 mb - 0.00 in0.0 mm 0.07 in1.8 mm
09:20 AM 32.5°F0.3°C 21.3°F-5.9°C 63% 3.5 mph ESE5.6 kmh ESE 4.6 mph7.4 kmh 29.74 in1007.1 mb - 0.00 in0.0 mm 0.07 in1.8 mm
09:15 AM 32.5°F0.3°C 21.3°F-5.9°C 63% 3.5 mph ESE5.6 kmh ESE 3.5 mph5.6 kmh 29.74 in1007.1 mb - 0.00 in0.0 mm 0.07 in1.8 mm
09:10 AM 32.5°F0.3°C 21.3°F-5.9°C 63% 3.5 mph ESE5.6 kmh ESE 4.6 mph7.4 kmh 29.74 in1007.1 mb - 0.01 in0.3 mm 0.07 in1.8 mm
09:00 AM 32.5°F0.3°C 21.7°F-5.7°C 64% 3.5 mph ESE5.6 kmh ESE 4.6 mph7.4 kmh 29.74 in1007.1 mb - 0.00 in0.0 mm 0.06 in1.5 mm
08:55 AM 32.4°F0.2°C 21.5°F-5.8°C 64% 3.5 mph ESE5.6 kmh ESE 5.8 mph9.3 kmh 29.74 in1007.1 mb - 0.00 in0.0 mm 0.06 in1.5 mm
08:50 AM 32.5°F0.3°C 21.7°F-5.7°C 64% 3.5 mph ESE5.6 kmh ESE 3.5 mph5.6 kmh 29.74 in1007.1 mb - 0.01 in0.3 mm 0.06 in1.5 mm
08:45 AM 32.4°F0.2°C 21.5°F-5.8°C 64% 2.3 mph ESE3.7 kmh ESE 3.5 mph5.6 kmh 29.68 in1005.1 mb - 0.00 in0.0 mm 0.05 in1.3 mm
08:40 AM 32.4°F0.2°C 21.5°F-5.8°C 64% 2.3 mph ESE3.7 kmh ESE 3.5 mph5.6 kmh 29.68 in1005.1 mb - 0.01 in0.3 mm 0.05 in1.3 mm
08:35 AM 32.4°F0.2°C 21.5°F-5.8°C 64% 2.3 mph ESE3.7 kmh ESE 1.2 mph1.9 kmh 29.68 in1005.1 mb - 0.01 in0.3 mm 0.05 in1.3 mm
08:30 AM 32.4°F0.2°C 21.9°F-5.6°C 65% 2.3 mph ESE3.7 kmh ESE 3.5 mph5.6 kmh 29.68 in1005.1 mb - 0.01 in0.3 mm 0.04 in1.0 mm
08:25 AM 32.4°F0.2°C 21.9°F-5.6°C 65% 3.5 mph ESE5.6 kmh ESE 3.5 mph5.6 kmh 29.73 in1006.8 mb - 0.01 in0.3 mm 0.03 in0.8 mm
08:20 AM 32.2°F0.1°C 21.7°F-5.7°C 65% 3.5 mph ESE5.6 kmh ESE 3.5 mph5.6 kmh 29.73 in1006.8 mb - 0.01 in0.3 mm 0.03 in0.8 mm
08:15 AM 32.2°F0.1°C 22.1°F-5.5°C 66% 3.5 mph ESE5.6 kmh ESE 2.3 mph3.7 kmh 29.73 in1006.8 mb - 0.01 in0.3 mm 0.02 in0.5 mm
08:10 AM 32.2°F0.1°C 22.4°F-5.3°C 67% 3.5 mph ESE5.6 kmh ESE 3.5 mph5.6 kmh 29.73 in1006.8 mb - 0.00 in0.0 mm 0.01 in0.3 mm
08:00 AM 32.2°F0.1°C 22.8°F-5.1°C 68% 3.5 mph ESE5.6 kmh ESE 3.5 mph5.6 kmh 29.73 in1006.8 mb - 0.00 in0.0 mm 0.01 in0.3 mm
07:55 AM 32.2°F0.1°C 22.8°F-5.1°C 68% 3.5 mph ESE5.6 kmh ESE 3.5 mph5.6 kmh 29.73 in1006.8 mb - 0.00 in0.0 mm 0.01 in0.3 mm
07:50 AM 32.2°F0.1°C 23.1°F-4.9°C 69% 3.5 mph ESE5.6 kmh ESE 3.5 mph5.6 kmh 29.73 in1006.8 mb - 0.00 in0.0 mm 0.01 in0.3 mm
07:45 AM 32.2°F0.1°C 23.1°F-4.9°C 69% 3.5 mph ESE5.6 kmh ESE 2.3 mph3.7 kmh 29.72 in1006.4 mb - 0.00 in0.0 mm 0.01 in0.3 mm
07:40 AM 32.2°F0.1°C 23.1°F-4.9°C 69% 3.5 mph ESE5.6 kmh ESE 3.5 mph5.6 kmh 29.72 in1006.4 mb - 0.00 in0.0 mm 0.01 in0.3 mm
07:35 AM 32.2°F0.1°C 23.1°F-4.9°C 69% 3.5 mph ESE5.6 kmh ESE 4.6 mph7.4 kmh 29.72 in1006.4 mb - 0.00 in0.0 mm 0.01 in0.3 mm
07:30 AM 32.2°F0.1°C 23.5°F-4.7°C 70% 3.5 mph SSE5.6 kmh SSE 4.6 mph7.4 kmh 29.72 in1006.4 mb - 0.00 in0.0 mm 0.01 in0.3 mm
07:25 AM 32.2°F0.1°C 23.5°F-4.7°C 70% 3.5 mph ESE5.6 kmh ESE 3.5 mph5.6 kmh 29.71 in1006.1 mb - 0.00 in0.0 mm 0.01 in0.3 mm
07:20 AM 32.2°F0.1°C 23.5°F-4.7°C 70% 2.3 mph SE3.7 kmh SE 5.8 mph9.3 kmh 29.71 in1006.1 mb - 0.00 in0.0 mm 0.01 in0.3 mm
07:15 AM 32.2°F0.1°C 23.5°F-4.7°C 70% 3.5 mph ESE5.6 kmh ESE 3.5 mph5.6 kmh 29.71 in1006.1 mb - 0.00 in0.0 mm 0.01 in0.3 mm
07:10 AM 32.2°F0.1°C 23.8°F-4.6°C 71% 3.5 mph SE5.6 kmh SE 2.3 mph3.7 kmh 29.71 in1006.1 mb - 0.01 in0.3 mm 0.01 in0.3 mm
07:00 AM 32.2°F0.1°C 24.2°F-4.3°C 72% 4.6 mph SE7.4 kmh SE 4.6 mph7.4 kmh 29.71 in1006.1 mb - 0.00 in0.0 mm 0.00 in0.0 mm
06:55 AM 32.2°F0.1°C 24.2°F-4.3°C 72% 3.5 mph SE5.6 kmh SE 6.9 mph11.1 kmh 29.71 in1006.1 mb - 0.00 in0.0 mm 0.00 in0.0 mm
06:50 AM 32.2°F0.1°C 24.2°F-4.3°C 72% 2.3 mph ESE3.7 kmh ESE 6.9 mph11.1 kmh 29.71 in1006.1 mb - 0.00 in0.0 mm 0.00 in0.0 mm
06:45 AM 32.2°F0.1°C 24.5°F-4.2°C 73% 2.3 mph ENE3.7 kmh ENE 1.2 mph1.9 kmh 29.70 in1005.8 mb - 0.00 in0.0 mm 0.00 in0.0 mm
06:40 AM 32.2°F0.1°C 24.5°F-4.2°C 73% 3.5 mph E5.6 kmh E 4.6 mph7.4 kmh 29.70 in1005.8 mb - 0.00 in0.0 mm 0.00 in0.0 mm
06:35 AM 32.2°F0.1°C 24.5°F-4.2°C 73% 3.5 mph ESE5.6 kmh ESE 2.3 mph3.7 kmh 29.70 in1005.8 mb - 0.00 in0.0 mm 0.00 in0.0 mm
06:30 AM 32.2°F0.1°C 24.8°F-4.0°C 74% 3.5 mph SE5.6 kmh SE 5.8 mph9.3 kmh 29.70 in1005.8 mb - 0.00 in0.0 mm 0.00 in0.0 mm
06:25 AM 32.2°F0.1°C 24.8°F-4.0°C 74% 3.5 mph SE5.6 kmh SE 2.3 mph3.7 kmh 29.70 in1005.8 mb - 0.00 in0.0 mm 0.00 in0.0 mm
06:20 AM 32.2°F0.1°C 24.8°F-4.0°C 74% 4.6 mph SE7.4 kmh SE 4.6 mph7.4 kmh 29.70 in1005.8 mb - 0.00 in0.0 mm 0.00 in0.0 mm
06:15 AM 32.2°F0.1°C 24.8°F-4.0°C 74% 4.6 mph SE7.4 kmh SE 4.6 mph7.4 kmh 29.70 in1005.8 mb - 0.00 in0.0 mm 0.00 in0.0 mm
06:10 AM 32.4°F0.2°C 25.3°F-3.7°C 75% 4.6 mph SE7.4 kmh SE 5.8 mph9.3 kmh 29.70 in1005.8 mb - 0.00 in0.0 mm 0.00 in0.0 mm
06:00 AM 32.4°F0.2°C 25.3°F-3.7°C 75% 5.8 mph SSE9.3 kmh SSE 9.2 mph14.8 kmh 29.70 in1005.8 mb - 0.00 in0.0 mm 0.00 in0.0 mm
05:55 AM 32.4°F0.2°C 25.3°F-3.7°C 75% 5.8 mph SE9.3 kmh SE 6.9 mph11.1 kmh 29.70 in1005.8 mb - 0.00 in0.0 mm 0.00 in0.0 mm
05:50 AM 32.4°F0.2°C 25.6°F-3.6°C 76% 5.8 mph SSE9.3 kmh SSE 6.9 mph11.1 kmh 29.70 in1005.8 mb - 0.00 in0.0 mm 0.00 in0.0 mm
05:45 AM 32.4°F0.2°C 25.6°F-3.6°C 76% 6.9 mph SSE11.1 kmh SSE 4.6 mph7.4 kmh 29.70 in1005.8 mb - 0.00 in0.0 mm 0.00 in0.0 mm
05:40 AM 32.5°F0.3°C 25.8°F-3.4°C 76% 6.9 mph SE11.1 kmh SE 8.1 mph13.0 kmh 29.70 in1005.8 mb - 0.00 in0.0 mm 0.00 in0.0 mm
05:35 AM 32.5°F0.3°C 25.8°F-3.4°C 76% 6.9 mph SE11.1 kmh SE 9.2 mph14.8 kmh 29.70 in1005.8 mb - 0.00 in0.0 mm 0.00 in0.0 mm
05:30 AM 32.5°F0.3°C 25.8°F-3.4°C 76% 6.9 mph S11.1 kmh S 6.9 mph11.1 kmh 29.70 in1005.8 mb - 0.00 in0.0 mm 0.00 in0.0 mm
05:25 AM 32.5°F0.3°C 25.8°F-3.4°C 76% 5.8 mph SSE9.3 kmh SSE 6.9 mph11.1 kmh 29.71 in1006.1 mb - 0.00 in0.0 mm 0.00 in0.0 mm
05:20 AM 32.5°F0.3°C 25.8°F-3.4°C 76% 5.8 mph SE9.3 kmh SE 6.9 mph11.1 kmh 29.71 in1006.1 mb - 0.00 in0.0 mm 0.00 in0.0 mm
05:15 AM 32.7°F0.4°C 26.0°F-3.3°C 76% 6.9 mph SSE11.1 kmh SSE 8.1 mph13.0 kmh 29.71 in1006.1 mb - 0.00 in0.0 mm 0.00 in0.0 mm
05:10 AM 32.7°F0.4°C 26.3°F-3.2°C 77% 6.9 mph SE11.1 kmh SE 6.9 mph11.1 kmh 29.71 in1006.1 mb - 0.00 in0.0 mm 0.00 in0.0 mm
05:00 AM 32.7°F0.4°C 26.3°F-3.2°C 77% 6.9 mph S11.1 kmh S 6.9 mph11.1 kmh 29.72 in1006.4 mb - 0.00 in0.0 mm 0.00 in0.0 mm
04:55 AM 32.7°F0.4°C 26.3°F-3.2°C 77% 6.9 mph SE11.1 kmh SE 6.9 mph11.1 kmh 29.72 in1006.4 mb - 0.00 in0.0 mm 0.00 in0.0 mm
04:50 AM 32.7°F0.4°C 26.6°F-3.0°C 78% 8.1 mph SSE13.0 kmh SSE 11.5 mph18.5 kmh 29.72 in1006.4 mb - 0.00 in0.0 mm 0.00 in0.0 mm
04:45 AM 32.7°F0.4°C 26.6°F-3.0°C 78% 8.1 mph SE13.0 kmh SE 9.2 mph14.8 kmh 29.72 in1006.4 mb - 0.00 in0.0 mm 0.00 in0.0 mm
04:40 AM 32.8°F0.4°C 26.7°F-2.9°C 78% 6.9 mph SE11.1 kmh SE 12.7 mph20.4 kmh 29.72 in1006.4 mb - 0.00 in0.0 mm 0.00 in0.0 mm
04:35 AM 32.9°F0.5°C 26.8°F-2.9°C 78% 6.9 mph SSE11.1 kmh SSE 9.2 mph14.8 kmh 29.72 in1006.4 mb - 0.00 in0.0 mm 0.00 in0.0 mm
04:30 AM 32.9°F0.5°C 26.8°F-2.9°C 78% 6.9 mph SSE11.1 kmh SSE 9.2 mph14.8 kmh 29.72 in1006.4 mb - 0.00 in0.0 mm 0.00 in0.0 mm
04:25 AM 32.9°F0.5°C 26.8°F-2.9°C 78% 8.1 mph SE13.0 kmh SE 8.1 mph13.0 kmh 29.71 in1006.1 mb - 0.00 in0.0 mm 0.00 in0.0 mm
04:20 AM 32.9°F0.5°C 27.1°F-2.7°C 79% 8.1 mph SSE13.0 kmh SSE 9.2 mph14.8 kmh 29.71 in1006.1 mb - 0.00 in0.0 mm 0.00 in0.0 mm
04:15 AM 32.9°F0.5°C 27.1°F-2.7°C 79% 8.1 mph SSE13.0 kmh SSE 13.8 mph22.2 kmh 29.71 in1006.1 mb - 0.00 in0.0 mm 0.00 in0.0 mm
04:10 AM 33.1°F0.6°C 27.3°F-2.6°C 79% 6.9 mph ESE11.1 kmh ESE 13.8 mph22.2 kmh 29.71 in1006.1 mb - 0.00 in0.0 mm 0.00 in0.0 mm
04:00 AM 33.1°F0.6°C 27.3°F-2.6°C 79% 6.9 mph SSE11.1 kmh SSE 9.2 mph14.8 kmh 29.74 in1007.1 mb - 0.00 in0.0 mm 0.00 in0.0 mm
03:55 AM 33.1°F0.6°C 27.3°F-2.6°C 79% 6.9 mph SE11.1 kmh SE 15.0 mph24.1 kmh 29.74 in1007.1 mb - 0.00 in0.0 mm 0.00 in0.0 mm
03:50 AM 33.3°F0.7°C 27.5°F-2.5°C 79% 5.8 mph S9.3 kmh S 9.2 mph14.8 kmh 29.74 in1007.1 mb - 0.00 in0.0 mm 0.00 in0.0 mm
03:45 AM 33.3°F0.7°C 27.5°F-2.5°C 79% 5.8 mph SSE9.3 kmh SSE 9.2 mph14.8 kmh 29.75 in1007.5 mb - 0.00 in0.0 mm 0.00 in0.0 mm
03:40 AM 33.3°F0.7°C 27.5°F-2.5°C 79% 5.8 mph SE9.3 kmh SE 6.9 mph11.1 kmh 29.75 in1007.5 mb - 0.00 in0.0 mm 0.00 in0.0 mm
03:35 AM 33.3°F0.7°C 27.5°F-2.5°C 79% 6.9 mph SE11.1 kmh SE 9.2 mph14.8 kmh 29.75 in1007.5 mb - 0.00 in0.0 mm 0.00 in0.0 mm
03:30 AM 33.3°F0.7°C 27.5°F-2.5°C 79% 5.8 mph SE9.3 kmh SE 8.1 mph13.0 kmh 29.75 in1007.5 mb - 0.00 in0.0 mm 0.00 in0.0 mm
03:25 AM 33.3°F0.7°C 27.5°F-2.5°C 79% 6.9 mph SSE11.1 kmh SSE 6.9 mph11.1 kmh 29.76 in1007.8 mb - 0.00 in0.0 mm 0.00 in0.0 mm
03:20 AM 33.3°F0.7°C 27.5°F-2.5°C 79% 6.9 mph SE11.1 kmh SE 8.1 mph13.0 kmh 29.76 in1007.8 mb - 0.00 in0.0 mm 0.00 in0.0 mm
03:15 AM 33.4°F0.8°C 27.9°F-2.3°C 80% 6.9 mph S11.1 kmh S 9.2 mph14.8 kmh 29.76 in1007.8 mb - 0.00 in0.0 mm 0.00 in0.0 mm
03:10 AM 33.4°F0.8°C 27.9°F-2.3°C 80% 6.9 mph SSE11.1 kmh SSE 5.8 mph9.3 kmh 29.76 in1007.8 mb - 0.00 in0.0 mm 0.00 in0.0 mm
03:00 AM 33.6°F0.9°C 28.1°F-2.2°C 80% 6.9 mph SE11.1 kmh SE 10.4 mph16.7 kmh 29.78 in1008.5 mb - 0.00 in0.0 mm 0.00 in0.0 mm
02:55 AM 33.6°F0.9°C 28.1°F-2.2°C 80% 6.9 mph SSE11.1 kmh SSE 10.4 mph16.7 kmh 29.78 in1008.5 mb - 0.00 in0.0 mm 0.00 in0.0 mm
02:50 AM 33.6°F0.9°C 28.1°F-2.2°C 80% 6.9 mph S11.1 kmh S 8.1 mph13.0 kmh 29.78 in1008.5 mb - 0.00 in0.0 mm 0.00 in0.0 mm
02:45 AM 33.6°F0.9°C 28.1°F-2.2°C 80% 8.1 mph S13.0 kmh S 8.1 mph13.0 kmh 29.78 in1008.5 mb - 0.00 in0.0 mm 0.00 in0.0 mm
02:40 AM 33.6°F0.9°C 28.1°F-2.2°C 80% 8.1 mph SE13.0 kmh SE 8.1 mph13.0 kmh 29.78 in1008.5 mb - 0.00 in0.0 mm 0.00 in0.0 mm
02:35 AM 33.6°F0.9°C 28.1°F-2.2°C 80% 8.1 mph SSE13.0 kmh SSE 9.2 mph14.8 kmh 29.78 in1008.5 mb - 0.00 in0.0 mm 0.00 in0.0 mm
02:30 AM 33.6°F0.9°C 28.1°F-2.2°C 80% 8.1 mph NW13.0 kmh NW 10.4 mph16.7 kmh 29.78 in1008.5 mb - 0.00 in0.0 mm 0.00 in0.0 mm
02:25 AM 33.6°F0.9°C 28.1°F-2.2°C 80% 6.9 mph SSE11.1 kmh SSE 9.2 mph14.8 kmh 29.78 in1008.5 mb - 0.00 in0.0 mm 0.00 in0.0 mm
02:20 AM 33.6°F0.9°C 28.1°F-2.2°C 80% 6.9 mph S11.1 kmh S 9.2 mph14.8 kmh 29.78 in1008.5 mb - 0.00 in0.0 mm 0.00 in0.0 mm
02:15 AM 33.6°F0.9°C 28.1°F-2.2°C 80% 6.9 mph S11.1 kmh S 8.1 mph13.0 kmh 29.78 in1008.5 mb - 0.00 in0.0 mm 0.00 in0.0 mm
02:10 AM 33.6°F0.9°C 28.1°F-2.2°C 80% 8.1 mph S13.0 kmh S 10.4 mph16.7 kmh 29.78 in1008.5 mb - 0.00 in0.0 mm 0.00 in0.0 mm
02:00 AM 33.6°F0.9°C 28.1°F-2.2°C 80% 9.2 mph S14.8 kmh S 11.5 mph18.5 kmh 29.78 in1008.5 mb - 0.00 in0.0 mm 0.00 in0.0 mm
01:55 AM 33.6°F0.9°C 28.1°F-2.2°C 80% 9.2 mph S14.8 kmh S 12.7 mph20.4 kmh 29.78 in1008.5 mb - 0.00 in0.0 mm 0.00 in0.0 mm
01:50 AM 33.6°F0.9°C 28.1°F-2.2°C 80% 9.2 mph SSE14.8 kmh SSE 8.1 mph13.0 kmh 29.78 in1008.5 mb - 0.00 in0.0 mm 0.00 in0.0 mm
01:45 AM 33.8°F1.0°C 28.3°F-2.1°C 80% 8.1 mph N13.0 kmh N 15.0 mph24.1 kmh 29.79 in1008.8 mb - 0.00 in0.0 mm 0.00 in0.0 mm
01:40 AM 33.6°F0.9°C 28.1°F-2.2°C 80% 8.1 mph SSE13.0 kmh SSE 12.7 mph20.4 kmh 29.79 in1008.8 mb - 0.00 in0.0 mm 0.00 in0.0 mm
01:30 AM 33.8°F1.0°C 28.3°F-2.1°C 80% 8.1 mph SW13.0 kmh SW 10.4 mph16.7 kmh 29.79 in1008.8 mb - 0.00 in0.0 mm 0.00 in0.0 mm
01:25 AM 33.8°F1.0°C 28.0°F-2.2°C 79% 8.1 mph SE13.0 kmh SE 11.5 mph18.5 kmh 29.80 in1009.1 mb - 0.00 in0.0 mm 0.00 in0.0 mm
01:20 AM 33.8°F1.0°C 28.0°F-2.2°C 79% 8.1 mph S13.0 kmh S 10.4 mph16.7 kmh 29.80 in1009.1 mb - 0.00 in0.0 mm 0.00 in0.0 mm
01:15 AM 33.8°F1.0°C 28.0°F-2.2°C 79% 6.9 mph SSE11.1 kmh SSE 6.9 mph11.1 kmh 29.80 in1009.1 mb - 0.00 in0.0 mm 0.00 in0.0 mm
01:10 AM 33.7°F0.9°C 27.9°F-2.3°C 79% 6.9 mph SE11.1 kmh SE 13.8 mph22.2 kmh 29.80 in1009.1 mb - 0.00 in0.0 mm 0.00 in0.0 mm
01:00 AM 33.8°F1.0°C 28.0°F-2.2°C 79% 8.1 mph SE13.0 kmh SE 11.5 mph18.5 kmh 29.81 in1009.5 mb - 0.00 in0.0 mm 0.00 in0.0 mm
12:55 AM 33.8°F1.0°C 28.0°F-2.2°C 79% 8.1 mph SSE13.0 kmh SSE 10.4 mph16.7 kmh 29.81 in1009.5 mb - 0.00 in0.0 mm 0.00 in0.0 mm
12:50 AM 33.8°F1.0°C 28.0°F-2.2°C 79% 8.1 mph S13.0 kmh S 9.2 mph14.8 kmh 29.81 in1009.5 mb - 0.00 in0.0 mm 0.00 in0.0 mm
12:45 AM 33.8°F1.0°C 28.0°F-2.2°C 79% 8.1 mph S13.0 kmh S 10.4 mph16.7 kmh 29.82 in1009.8 mb - 0.00 in0.0 mm 0.00 in0.0 mm
12:40 AM 33.8°F1.0°C 28.0°F-2.2°C 79% 6.9 mph SSE11.1 kmh SSE 13.8 mph22.2 kmh 29.82 in1009.8 mb - 0.00 in0.0 mm 0.00 in0.0 mm
12:35 AM 33.8°F1.0°C 28.0°F-2.2°C 79% 6.9 mph S11.1 kmh S 6.9 mph11.1 kmh 29.82 in1009.8 mb - 0.00 in0.0 mm 0.00 in0.0 mm
12:30 AM 33.9°F1.1°C 28.0°F-2.2°C 79% 6.9 mph SSE11.1 kmh SSE 6.9 mph11.1 kmh 29.82 in1009.8 mb - 0.00 in0.0 mm 0.00 in0.0 mm
12:25 AM 34.0°F1.1°C 28.2°F-2.1°C 79% 6.9 mph S11.1 kmh S 9.2 mph14.8 kmh 29.83 in1010.2 mb - 0.00 in0.0 mm 0.00 in0.0 mm
12:20 AM 34.1°F1.2°C 28.2°F-2.1°C 79% 8.1 mph SE13.0 kmh SE 8.1 mph13.0 kmh 29.83 in1010.2 mb - 0.00 in0.0 mm 0.00 in0.0 mm
12:15 AM 34.2°F1.2°C 28.3°F-2.1°C 79% 6.9 mph S11.1 kmh S 5.8 mph9.3 kmh 29.83 in1010.2 mb - 0.00 in0.0 mm 0.00 in0.0 mm
12:10 AM 34.2°F1.2°C 28.3°F-2.1°C 79% 6.9 mph SSE11.1 kmh SSE 11.5 mph18.5 kmh 29.83 in1010.2 mb - 0.00 in0.0 mm 0.00 in0.0 mm
12:00 AM 34.3°F1.3°C 28.5°F-1.9°C 79% 6.9 mph SSW11.1 kmh SSW 11.5 mph18.5 kmh 29.84 in1010.5 mb - 0.00 in0.0 mm 0.00 in0.0 mm